createdAt,value
2023-05-19T00:00:28.050Z,20.2
2023-05-19T00:05:28.029Z,20.2
2023-05-19T00:10:28.012Z,20.2
2023-05-19T00:15:28.021Z,20.2
2023-05-19T00:20:27.969Z,20.2
2023-05-19T00:25:27.988Z,20.2
2023-05-19T00:30:27.919Z,20.2
2023-05-19T00:35:27.900Z,20.2
2023-05-19T00:40:27.878Z,20.2
2023-05-19T00:45:27.861Z,20.2
2023-05-19T00:50:27.838Z,20.2
2023-05-19T00:55:27.824Z,20.2
2023-05-19T01:00:27.795Z,20.2
2023-05-19T01:05:27.798Z,20.2
2023-05-19T01:10:27.756Z,20.2
2023-05-19T01:15:27.733Z,20.2
2023-05-19T01:20:27.717Z,20.2
2023-05-19T01:25:27.692Z,20.2
2023-05-19T01:30:27.664Z,20.2
2023-05-19T01:35:27.648Z,20.2
2023-05-19T01:40:27.634Z,20.2
2023-05-19T01:45:27.618Z,20.1
2023-05-19T01:50:27.583Z,20.1
2023-05-19T01:55:27.590Z,20.2
2023-05-19T02:00:27.559Z,20.1
2023-05-19T02:05:27.532Z,20.2
2023-05-19T02:10:27.505Z,20.1
2023-05-19T02:15:27.492Z,20.2
2023-05-19T02:20:27.460Z,20.1
2023-05-19T02:25:27.444Z,20.1
2023-05-19T02:30:27.423Z,20.1
2023-05-19T02:35:27.401Z,20.1
2023-05-19T02:40:27.371Z,20.1
2023-05-19T02:45:27.355Z,20.1
2023-05-19T02:50:27.329Z,20.1
2023-05-19T02:55:27.309Z,20.2
2023-05-19T03:00:27.299Z,20.1
2023-05-19T03:05:27.272Z,20.1
2023-05-19T03:10:27.248Z,20.1
2023-05-19T03:15:27.222Z,20.1
2023-05-19T03:20:27.192Z,20.1
2023-05-19T03:25:27.180Z,20.1
2023-05-19T03:30:27.167Z,20.1
2023-05-19T03:35:27.141Z,20.1
2023-05-19T03:40:27.123Z,20.1
2023-05-19T03:45:27.153Z,20.1
2023-05-19T03:50:27.075Z,20.1
2023-05-19T03:55:27.069Z,20.1
2023-05-19T04:00:27.036Z,20.1
2023-05-19T04:05:27.013Z,20.1
2023-05-19T04:10:26.987Z,20.1
2023-05-19T04:15:26.985Z,20.1
2023-05-19T04:20:26.958Z,20.1
2023-05-19T04:25:26.943Z,20.1
2023-05-19T04:30:26.906Z,20.1
2023-05-19T04:35:26.889Z,20.1
2023-05-19T04:40:26.858Z,20.1
2023-05-19T04:45:26.842Z,20.1
2023-05-19T04:50:26.848Z,20.1
2023-05-19T04:55:26.821Z,20.1
2023-05-19T05:00:26.779Z,20.1
2023-05-19T05:05:26.757Z,20.1
2023-05-19T05:10:26.726Z,20.1
2023-05-19T05:15:26.717Z,20.1
2023-05-19T05:20:26.693Z,20.1
2023-05-19T05:25:26.663Z,20.1
2023-05-19T05:30:26.653Z,20.1
2023-05-19T05:35:26.695Z,20.1
2023-05-19T05:40:26.608Z,20.1
2023-05-19T05:45:26.577Z,20.1
2023-05-19T05:50:26.578Z,20.1
2023-05-19T05:55:26.546Z,20.1
2023-05-19T06:00:26.577Z,20.1
2023-05-19T06:05:26.510Z,20.1
2023-05-19T06:10:26.555Z,20.1
2023-05-19T06:15:26.535Z,20
2023-05-19T06:20:26.430Z,20.1
2023-05-19T06:25:26.428Z,20.1
2023-05-19T06:30:26.396Z,20.1
2023-05-19T06:35:26.402Z,20.1
2023-05-19T06:40:26.381Z,20.1
2023-05-19T06:45:26.337Z,20.1
2023-05-19T06:50:26.321Z,20.1
2023-05-19T06:55:26.295Z,20.1
2023-05-19T07:00:26.265Z,20.1
2023-05-19T07:05:26.272Z,19.9
2023-05-19T07:10:26.220Z,19.7
2023-05-19T07:15:26.225Z,19.5
2023-05-19T07:20:26.300Z,19.5
2023-05-19T07:25:26.185Z,19.6
2023-05-19T07:30:26.150Z,19.5
2023-05-19T07:35:26.138Z,19.6
2023-05-19T07:40:26.095Z,19.6
2023-05-19T07:45:26.104Z,19.6
2023-05-19T07:50:26.154Z,19.6
2023-05-19T07:55:26.037Z,19.7
2023-05-19T08:00:26.009Z,19.7
2023-05-19T08:05:25.992Z,19.7
2023-05-19T08:10:25.957Z,19.7
2023-05-19T08:15:26.005Z,19.7
2023-05-19T08:20:25.912Z,19.7
2023-05-19T08:25:25.903Z,19.8
2023-05-19T08:30:25.876Z,19.8
2023-05-19T08:35:26.037Z,19.8
2023-05-19T08:40:25.841Z,19.8
2023-05-19T08:45:25.894Z,19.9
2023-05-19T08:50:25.783Z,19.9
2023-05-19T08:55:25.928Z,19.9
2023-05-19T09:00:25.813Z,19.9
2023-05-19T09:05:25.733Z,19.9
2023-05-19T09:10:25.879Z,19.9
2023-05-19T09:15:25.822Z,19.9
2023-05-19T09:20:25.832Z,19.9
2023-05-19T09:25:25.776Z,19.9
2023-05-19T09:30:25.805Z,20
2023-05-19T09:35:25.604Z,20
2023-05-19T09:40:25.688Z,20
2023-05-19T09:45:25.678Z,19.9
2023-05-19T09:50:25.722Z,20
2023-05-19T09:55:25.601Z,19.9
2023-05-19T10:00:25.640Z,19.9
2023-05-19T10:05:25.618Z,20
2023-05-19T10:10:25.678Z,20
2023-05-19T10:15:25.441Z,20
2023-05-19T10:20:25.520Z,20
2023-05-19T10:25:25.442Z,19.9
2023-05-19T10:30:25.557Z,19.9
2023-05-19T10:35:25.494Z,19.9
2023-05-19T10:40:25.460Z,19.9
2023-05-19T10:45:25.389Z,19.9
2023-05-19T10:50:25.404Z,19.9
2023-05-19T10:55:25.269Z,19.9
2023-05-19T11:00:25.420Z,20
2023-05-19T11:05:25.351Z,19.9
2023-05-19T11:10:25.460Z,20
2023-05-19T11:15:25.367Z,19.8
2023-05-19T11:20:25.151Z,19.8
2023-05-19T11:25:25.133Z,19.9
2023-05-19T11:30:25.233Z,19.9
2023-05-19T11:35:25.100Z,19.9
2023-05-19T11:40:25.206Z,19.9
2023-05-19T11:45:25.161Z,19.9
2023-05-19T11:50:25.140Z,19.9
2023-05-19T11:55:25.159Z,19.9
2023-05-19T12:00:24.987Z,19.9
2023-05-19T12:05:25.002Z,19.8
2023-05-19T12:10:25.154Z,19.8
2023-05-19T12:15:25.019Z,19.8
2023-05-19T12:20:25.073Z,19.9
2023-05-19T12:25:24.880Z,19.8
2023-05-19T12:30:24.935Z,19.9
2023-05-19T12:35:24.851Z,19.9
2023-05-19T12:40:24.890Z,19.9
2023-05-19T12:45:24.832Z,19.8
2023-05-19T12:50:24.937Z,19.8
2023-05-19T12:55:24.926Z,19.8
2023-05-19T13:00:24.841Z,19.8
2023-05-19T13:05:24.795Z,19.7
2023-05-19T13:10:24.701Z,19.7
2023-05-19T13:15:24.715Z,19.7
2023-05-19T13:20:24.662Z,19.6
2023-05-19T13:25:24.776Z,19.6
2023-05-19T13:30:24.597Z,19.6
2023-05-19T13:35:24.745Z,19.5
2023-05-19T13:40:24.681Z,19.6
2023-05-19T13:45:24.736Z,19.5
2023-05-19T13:50:24.638Z,19.5
2023-05-19T13:55:24.490Z,19.5
2023-05-19T14:00:24.614Z,19.5
2023-05-19T14:05:24.535Z,19.5
2023-05-19T14:10:24.504Z,19.4
2023-05-19T14:15:24.572Z,19.4
2023-05-19T14:20:24.510Z,19.5
2023-05-19T14:25:24.415Z,19.5
2023-05-19T14:30:24.491Z,19.5
2023-05-19T14:35:24.574Z,19.5
2023-05-19T14:40:24.442Z,19.6
2023-05-19T14:45:24.473Z,19.6
2023-05-19T14:50:24.387Z,19.6
2023-05-19T14:55:24.461Z,19.6
2023-05-19T15:00:24.322Z,19.7
2023-05-19T15:05:24.361Z,19.7
2023-05-19T15:10:24.193Z,19.7
2023-05-19T15:15:24.338Z,19.7
2023-05-19T15:20:24.223Z,19.7
2023-05-19T15:25:24.292Z,19.7
2023-05-19T15:30:24.201Z,19.8
2023-05-19T15:35:24.110Z,19.7
2023-05-19T15:40:24.060Z,19.7
2023-05-19T15:45:24.203Z,19.7
2023-05-19T15:50:24.127Z,19.8
2023-05-19T15:55:24.033Z,19.8
2023-05-19T16:00:24.090Z,19.8
2023-05-19T16:05:24.099Z,19.8
2023-05-19T16:10:24.013Z,19.7
2023-05-19T16:15:24.066Z,19.7
2023-05-19T16:20:23.889Z,19.7
2023-05-19T16:25:23.872Z,19.7
2023-05-19T16:30:23.981Z,19.7
2023-05-19T16:35:23.830Z,19.7
2023-05-19T16:40:23.786Z,19.8
2023-05-19T16:45:23.885Z,19.8
2023-05-19T16:50:23.799Z,19.8
2023-05-19T16:55:23.860Z,19.8
2023-05-19T17:00:23.702Z,19.8
2023-05-19T17:05:23.685Z,19.8
2023-05-19T17:10:23.656Z,19.8
2023-05-19T17:15:23.649Z,19.8
2023-05-19T17:20:23.616Z,19.8
2023-05-19T17:25:23.705Z,19.8
2023-05-19T17:30:23.668Z,19.9
2023-05-19T17:35:23.560Z,19.9
2023-05-19T17:40:23.661Z,19.9
2023-05-19T17:45:23.623Z,19.9
2023-05-19T17:50:23.640Z,19.9
2023-05-19T17:55:23.628Z,19.9
2023-05-19T18:00:23.594Z,19.9
2023-05-19T18:05:23.544Z,19.9
2023-05-19T18:10:23.527Z,19.9
2023-05-19T18:15:23.577Z,19.9
2023-05-19T18:20:23.484Z,19.9
2023-05-19T18:25:23.463Z,19.9
2023-05-19T18:30:23.441Z,19.9
2023-05-19T18:35:23.457Z,19.9
2023-05-19T18:40:23.345Z,19.9
2023-05-19T18:45:23.418Z,19.9
2023-05-19T18:50:23.239Z,19.9
2023-05-19T18:55:23.360Z,19.9
2023-05-19T19:00:23.406Z,19.9
2023-05-19T19:05:23.296Z,19.9
2023-05-19T19:10:23.227Z,19.9
2023-05-19T19:15:23.221Z,19.9
2023-05-19T19:20:23.200Z,19.9
2023-05-19T19:25:23.326Z,20
2023-05-19T19:30:23.155Z,19.9
2023-05-19T19:35:23.085Z,19.9
2023-05-19T19:40:23.045Z,19.9
2023-05-19T19:45:23.202Z,19.9
2023-05-19T19:50:23.062Z,20
2023-05-19T19:55:23.155Z,19.9
2023-05-19T20:00:23.023Z,20
2023-05-19T20:05:22.910Z,20
2023-05-19T20:10:22.999Z,20
2023-05-19T20:15:22.988Z,19.9
2023-05-19T20:20:22.984Z,20
2023-05-19T20:25:22.961Z,20
2023-05-19T20:30:22.846Z,20
2023-05-19T20:35:22.909Z,19.9
2023-05-19T20:40:22.836Z,20
2023-05-19T20:45:22.744Z,20
2023-05-19T20:50:22.859Z,20
2023-05-19T20:55:22.696Z,20
2023-05-19T21:00:22.685Z,20
2023-05-19T21:05:22.669Z,20
2023-05-19T21:10:22.634Z,20
2023-05-19T21:15:22.677Z,20
2023-05-19T21:20:22.783Z,20
2023-05-19T21:25:22.591Z,20
2023-05-19T21:30:22.556Z,20
2023-05-19T21:35:22.697Z,20
2023-05-19T21:40:22.646Z,20
2023-05-19T21:45:22.663Z,20
2023-05-19T21:50:22.536Z,20
2023-05-19T21:55:22.653Z,20
2023-05-19T22:00:22.573Z,20
2023-05-19T22:05:22.571Z,20
2023-05-19T22:10:22.521Z,20
2023-05-19T22:15:22.527Z,19.9
2023-05-19T22:20:22.446Z,20
2023-05-19T22:25:22.432Z,20
2023-05-19T22:30:22.448Z,20
2023-05-19T22:35:22.417Z,20
2023-05-19T22:40:22.363Z,20
2023-05-19T22:45:22.363Z,20
2023-05-19T22:50:22.200Z,20
2023-05-19T22:55:22.289Z,20
2023-05-19T23:00:22.257Z,20
2023-05-19T23:05:22.198Z,20
2023-05-19T23:10:22.117Z,19.9
2023-05-19T23:15:22.278Z,20
2023-05-19T23:20:22.225Z,20
2023-05-19T23:25:22.047Z,20
2023-05-19T23:30:22.200Z,20
2023-05-19T23:35:22.174Z,19.9
2023-05-19T23:40:22.050Z,20
2023-05-19T23:45:22.131Z,20
2023-05-19T23:50:22.142Z,20
2023-05-19T23:55:22.093Z,20
